Kaunakakai, Hawaii
Current Conditions -  °F | °C
As of 10:54 AM on Tuesday 25 Nov 2014 (Local Time) from PHMK Reporting Station
Scattered Clouds Scattered Clouds  
Wind Chill: 75°   Ceiling: Unl
Heat Index: 75°   Visibility: 10mi
Dew Point: 59°   Wind: 15mph
Humidity: 57%   Direction: 40°NE
Pressure: 30.05"   Gusts: NA
Location:  21.09°N, 157.01°W
Report Text: PHMK 252054Z 04013KT 10SM FEW020 SCT050 24/15 A3005 RMK AO2 SLP177 T02390150 58002
Loading
Personal Weather Stations






























Interactive Weather Map New forecast layout! Learn more

10-Day Weather Forecast

Advertisements
Track Severe Weather on mobile